createdAt,value
2023-03-25T00:00:47.523Z,91.22
2023-03-25T00:01:47.659Z,91.67
2023-03-25T00:02:47.752Z,91.26
2023-03-25T00:03:47.510Z,91.26
2023-03-25T00:04:47.574Z,90.95
2023-03-25T00:05:47.534Z,90.95
2023-03-25T00:06:47.459Z,90.54
2023-03-25T00:07:47.441Z,90.54
2023-03-25T00:08:47.452Z,91.26
2023-03-25T00:09:47.444Z,91.91
2023-03-25T00:10:47.417Z,91.20
2023-03-25T00:11:47.414Z,91.30
2023-03-25T00:12:47.412Z,91.40
2023-03-25T00:13:47.397Z,91.40
2023-03-25T00:14:47.397Z,91.09
2023-03-25T00:15:47.615Z,90.48
2023-03-25T00:16:47.418Z,90.89
2023-03-25T00:17:47.427Z,90.79
2023-03-25T00:18:47.342Z,91.20
2023-03-25T00:19:47.310Z,89.87
2023-03-25T00:20:47.310Z,90.07
2023-03-25T00:21:47.307Z,89.66
2023-03-25T00:22:47.306Z,88.74
2023-03-25T00:23:47.286Z,88.53
2023-03-25T00:24:47.266Z,89.56
2023-03-25T00:25:47.327Z,89.25
2023-03-25T00:26:47.234Z,88.64
2023-03-25T00:27:47.314Z,88.12
2023-03-25T00:28:47.228Z,88.64
2023-03-25T00:29:47.224Z,89.45
2023-03-25T00:30:47.214Z,89.15
2023-03-25T00:31:47.184Z,88.84
2023-03-25T00:32:47.206Z,89.25
2023-03-25T00:33:47.162Z,89.45
2023-03-25T00:34:47.518Z,88.43
2023-03-25T00:35:47.270Z,88.64
2023-03-25T00:36:47.134Z,88.33
2023-03-25T00:37:47.143Z,87.92
2023-03-25T00:38:47.145Z,87.30
2023-03-25T00:39:47.106Z,87.51
2023-03-25T00:40:47.097Z,87.92
2023-03-25T00:41:47.090Z,87.92
2023-03-25T00:42:47.069Z,87.61
2023-03-25T00:43:47.077Z,87.41
2023-03-25T00:44:47.072Z,87.61
2023-03-25T00:45:47.078Z,87.20
2023-03-25T00:46:47.099Z,87.30
2023-03-25T00:47:47.107Z,87.10
2023-03-25T00:48:47.016Z,86.90
2023-03-25T00:49:46.996Z,87.41
2023-03-25T00:50:46.984Z,87.20
2023-03-25T00:51:52.549Z,87.20
2023-03-25T00:52:47.965Z,88.02
2023-03-25T00:53:46.972Z,86.79
2023-03-25T00:54:46.942Z,87.20
2023-03-25T00:55:46.940Z,86.79
2023-03-25T00:56:46.965Z,87.20
2023-03-25T00:57:46.916Z,86.69
2023-03-25T00:58:46.901Z,86.48
2023-03-25T00:59:46.898Z,86.79
2023-03-25T01:00:46.881Z,86.48
2023-03-25T01:01:46.871Z,86.79
2023-03-25T01:02:47.203Z,86.99
2023-03-25T01:03:46.898Z,86.48
2023-03-25T01:04:46.842Z,86.58
2023-03-25T01:05:46.827Z,86.90
2023-03-25T01:06:46.825Z,86.99
2023-03-25T01:07:46.805Z,87.30
2023-03-25T01:08:46.776Z,87.61
2023-03-25T01:09:46.903Z,87.10
2023-03-25T01:10:46.765Z,87.10
2023-03-25T01:11:46.776Z,87.76
2023-03-25T01:12:46.775Z,87.55
2023-03-25T01:13:46.730Z,87.45
2023-03-25T01:14:46.717Z,87.65
2023-03-25T01:15:46.749Z,87.85
2023-03-25T01:16:46.702Z,88.17
2023-03-25T01:17:46.728Z,88.06
2023-03-25T01:18:46.669Z,87.65
2023-03-25T01:19:46.667Z,87.55
2023-03-25T01:20:46.681Z,87.24
2023-03-25T01:21:46.659Z,87.34
2023-03-25T01:22:46.638Z,87.04
2023-03-25T01:23:46.634Z,86.93
2023-03-25T01:24:46.616Z,86.93
2023-03-25T01:25:46.609Z,87.14
2023-03-25T01:26:46.594Z,86.73
2023-03-25T01:27:46.571Z,86.83
2023-03-25T01:28:46.580Z,86.25
2023-03-25T01:29:46.578Z,86.32
2023-03-25T01:30:46.562Z,86.36
2023-03-25T01:31:46.581Z,87.38
2023-03-25T01:32:46.555Z,87.18
2023-03-25T01:33:46.529Z,86.57
2023-03-25T01:34:46.514Z,86.66
2023-03-25T01:35:46.494Z,86.46
2023-03-25T01:36:46.881Z,86.77
2023-03-25T01:37:46.501Z,85.85
2023-03-25T01:38:46.464Z,85.95
2023-03-25T01:39:46.471Z,85.54
2023-03-25T01:40:46.434Z,85.74
2023-03-25T01:41:49.653Z,86.15
2023-03-25T01:42:46.450Z,85.85
2023-03-25T01:43:46.412Z,85.91
2023-03-25T01:44:46.384Z,86.25
2023-03-25T01:45:46.391Z,85.91
2023-03-25T01:46:46.406Z,85.60
2023-03-25T01:47:46.387Z,85.91
2023-03-25T01:48:46.347Z,86.11
2023-03-25T01:49:46.343Z,85.09
2023-03-25T01:50:46.334Z,85.09
2023-03-25T01:51:46.331Z,85.39
2023-03-25T01:52:46.325Z,85.71
2023-03-25T01:53:46.350Z,86.01
2023-03-25T01:54:46.282Z,85.60
2023-03-25T01:55:46.301Z,85.39
2023-03-25T01:56:46.316Z,85.71
2023-03-25T01:57:46.402Z,85.39
2023-03-25T01:58:46.269Z,85.50
2023-03-25T01:59:46.235Z,85.60
2023-03-25T02:00:46.287Z,85.80
2023-03-25T02:01:46.227Z,85.91
2023-03-25T02:02:46.244Z,86.32
2023-03-25T02:03:46.471Z,86.11
2023-03-25T02:04:46.177Z,86.22
2023-03-25T02:05:46.183Z,86.52
2023-03-25T02:06:46.158Z,86.22
2023-03-25T02:07:46.180Z,86.11
2023-03-25T02:08:46.141Z,85.64
2023-03-25T02:09:46.133Z,85.44
2023-03-25T02:10:46.125Z,85.54
2023-03-25T02:11:46.120Z,84.72
2023-03-25T02:12:46.113Z,85.13
2023-03-25T02:13:46.099Z,85.54
2023-03-25T02:14:46.083Z,86.05
2023-03-25T02:15:46.076Z,85.85
2023-03-25T02:16:46.064Z,85.64
2023-03-25T02:17:46.144Z,85.95
2023-03-25T02:18:46.063Z,85.85
2023-03-25T02:19:46.028Z,85.95
2023-03-25T02:20:46.022Z,85.44
2023-03-25T02:21:46.038Z,85.74
2023-03-25T02:22:45.982Z,86.05
2023-03-25T02:23:45.993Z,85.64
2023-03-25T02:24:45.969Z,85.64
2023-03-25T02:25:46.036Z,85.54
2023-03-25T02:26:45.952Z,85.74
2023-03-25T02:27:45.941Z,86.25
2023-03-25T02:28:45.922Z,85.74
2023-03-25T02:29:45.922Z,85.44
2023-03-25T02:30:45.910Z,85.54
2023-03-25T02:31:45.982Z,85.39
2023-03-25T02:32:45.955Z,85.80
2023-03-25T02:34:00.639Z,85.91
2023-03-25T02:34:45.877Z,86.01
2023-03-25T02:35:45.890Z,86.11
2023-03-25T02:36:45.852Z,86.01
2023-03-25T02:37:45.862Z,85.91
2023-03-25T02:38:45.833Z,85.80
2023-03-25T02:39:45.827Z,86.11
2023-03-25T02:40:45.804Z,86.22
2023-03-25T02:41:45.811Z,86.63
2023-03-25T02:42:45.803Z,86.73
2023-03-25T02:43:45.798Z,87.24
2023-03-25T02:44:45.762Z,88.17
2023-03-25T02:45:45.784Z,89.39
2023-03-25T02:46:45.740Z,90.01
2023-03-25T02:47:45.748Z,89.43
2023-03-25T02:48:45.717Z,91.33
2023-03-25T02:49:45.717Z,91.99
2023-03-25T02:50:45.724Z,93.57
2023-03-25T02:51:45.697Z,94.43
2023-03-25T02:52:45.687Z,95.09
2023-03-25T02:53:45.678Z,96.06
2023-03-25T02:54:45.655Z,96.93
2023-03-25T02:55:45.658Z,97.24
2023-03-25T02:56:45.713Z,97.65
2023-03-25T02:57:45.632Z,97.96
2023-03-25T02:58:45.621Z,98.11
2023-03-25T02:59:45.615Z,98.11
2023-03-25T03:00:45.610Z,98.32
2023-03-25T03:01:45.747Z,98.93
2023-03-25T03:02:45.697Z,99.14
2023-03-25T03:03:45.563Z,99.34
2023-03-25T03:04:45.546Z,99.44
2023-03-25T03:05:45.575Z,99.65
2023-03-25T03:06:45.527Z,99.55
2023-03-25T03:07:45.537Z,99.55
2023-03-25T03:08:45.502Z,99.34
2023-03-25T03:09:45.506Z,99.76
2023-03-25T03:10:45.487Z,99.96
2023-03-25T03:11:45.485Z,99.99
2023-03-25T03:12:45.469Z,99.99
2023-03-25T03:13:45.454Z,99.86
2023-03-25T03:14:45.451Z,99.86
2023-03-25T03:15:45.452Z,99.86
2023-03-25T03:16:45.466Z,99.99
2023-03-25T03:17:45.491Z,99.99
2023-03-25T03:18:45.404Z,99.99
2023-03-25T03:19:45.383Z,99.96
2023-03-25T03:20:45.389Z,99.99
2023-03-25T03:21:45.380Z,99.99
2023-03-25T03:22:45.371Z,99.99
2023-03-25T03:23:45.349Z,99.99
2023-03-25T03:24:45.337Z,99.96
2023-03-25T03:25:45.363Z,99.86
2023-03-25T03:26:45.322Z,99.99
2023-03-25T03:27:45.303Z,99.99
2023-03-25T03:28:45.302Z,99.99
2023-03-25T03:29:45.288Z,99.99
2023-03-25T03:30:45.485Z,99.99
2023-03-25T03:31:49.797Z,99.99
2023-03-25T03:32:46.290Z,99.99
2023-03-25T03:33:45.237Z,99.99
2023-03-25T03:34:45.244Z,99.99
2023-03-25T03:35:45.237Z,99.99
2023-03-25T03:36:45.207Z,99.99
2023-03-25T03:37:45.193Z,99.99
2023-03-25T03:38:45.186Z,99.99
2023-03-25T03:39:45.173Z,99.99
2023-03-25T03:40:45.186Z,99.99
2023-03-25T03:41:45.154Z,99.99
2023-03-25T03:42:45.150Z,99.99
2023-03-25T03:43:45.139Z,99.99
2023-03-25T03:44:45.146Z,99.99
2023-03-25T03:45:45.106Z,99.99
2023-03-25T03:46:46.083Z,99.99
2023-03-25T03:47:45.092Z,99.99
2023-03-25T03:48:45.076Z,99.99
2023-03-25T03:49:45.101Z,99.99
2023-03-25T03:50:45.056Z,99.99
2023-03-25T03:51:45.050Z,99.71
2023-03-25T03:52:45.047Z,99.51
2023-03-25T03:53:45.025Z,99.19
2023-03-25T03:54:45.013Z,99.09
2023-03-25T03:55:45.014Z,98.79
2023-03-25T03:56:45.036Z,98.27
2023-03-25T03:57:44.981Z,98.27
2023-03-25T03:58:45.011Z,97.86
2023-03-25T03:59:44.956Z,98.16
2023-03-25T04:00:44.972Z,97.86
2023-03-25T04:01:44.961Z,97.24
2023-03-25T04:02:45.020Z,97.24
2023-03-25T04:03:44.987Z,97.44
2023-03-25T04:04:44.918Z,97.44
2023-03-25T04:05:44.904Z,97.14
2023-03-25T04:06:44.882Z,96.62
2023-03-25T04:07:44.875Z,96.42
2023-03-25T04:08:44.874Z,95.59
2023-03-25T04:09:44.855Z,95.90
2023-03-25T04:10:44.845Z,96.00
2023-03-25T04:11:44.847Z,95.39
2023-03-25T04:12:44.822Z,95.08
2023-03-25T04:13:44.822Z,95.08
2023-03-25T04:14:44.816Z,94.36
2023-03-25T04:15:44.901Z,94.05
2023-03-25T04:16:44.792Z,93.95
2023-03-25T04:17:44.792Z,94.56
2023-03-25T04:18:44.765Z,95.14
2023-03-25T04:19:44.747Z,95.08
2023-03-25T04:20:44.897Z,95.08
2023-03-25T04:21:44.740Z,95.08
2023-03-25T04:22:44.717Z,94.87
2023-03-25T04:23:44.721Z,94.77
2023-03-25T04:24:44.700Z,94.73
2023-03-25T04:25:44.678Z,94.77
2023-03-25T04:26:44.686Z,94.46
2023-03-25T04:27:44.660Z,94.26
2023-03-25T04:28:44.695Z,93.90
2023-03-25T04:29:44.638Z,93.64
2023-03-25T04:30:44.635Z,94.05
2023-03-25T04:31:44.649Z,93.84
2023-03-25T04:32:44.648Z,94.05
2023-03-25T04:33:44.612Z,93.84
2023-03-25T04:34:44.621Z,94.26
2023-03-25T04:35:44.594Z,93.95
2023-03-25T04:36:44.564Z,93.84
2023-03-25T04:37:45.707Z,94.46
2023-03-25T04:38:44.568Z,94.26
2023-03-25T04:39:44.534Z,94.15
2023-03-25T04:40:44.572Z,93.74
2023-03-25T04:41:44.515Z,93.23
2023-03-25T04:42:44.504Z,93.02
2023-03-25T04:43:44.505Z,93.33
2023-03-25T04:44:44.491Z,93.54
2023-03-25T04:45:44.512Z,93.23
2023-03-25T04:46:44.458Z,93.12
2023-03-25T04:47:44.471Z,92.92
2023-03-25T04:48:44.447Z,93.12
2023-03-25T04:49:44.532Z,93.33
2023-03-25T04:50:44.533Z,93.23
2023-03-25T04:51:44.575Z,93.33
2023-03-25T04:52:44.414Z,93.33
2023-03-25T04:53:44.385Z,93.23
2023-03-25T04:54:44.390Z,93.23
2023-03-25T04:55:44.356Z,92.82
2023-03-25T04:56:44.370Z,92.50
2023-03-25T04:57:44.351Z,92.40
2023-03-25T04:58:44.394Z,92.40
2023-03-25T04:59:44.341Z,92.71
2023-03-25T05:00:44.316Z,92.20
2023-03-25T05:01:44.406Z,91.68
2023-03-25T05:02:44.450Z,91.68
2023-03-25T05:03:44.276Z,92.10
2023-03-25T05:04:44.371Z,91.99
2023-03-25T05:05:44.257Z,91.99
2023-03-25T05:06:44.257Z,91.99
2023-03-25T05:07:44.241Z,91.89
2023-03-25T05:08:44.227Z,91.68
2023-03-25T05:09:44.213Z,91.58
2023-03-25T05:10:44.194Z,91.17
2023-03-25T05:11:44.186Z,91.47
2023-03-25T05:12:44.185Z,91.89
2023-03-25T05:13:44.161Z,92.20
2023-03-25T05:14:44.167Z,91.68
2023-03-25T05:15:44.162Z,91.68
2023-03-25T05:16:44.182Z,91.38
2023-03-25T05:17:44.185Z,91.58
2023-03-25T05:18:44.128Z,92.30
2023-03-25T05:19:44.144Z,92.82
2023-03-25T05:20:44.083Z,92.50
2023-03-25T05:21:44.085Z,92.10
2023-03-25T05:22:45.118Z,91.68
2023-03-25T05:23:44.174Z,91.58
2023-03-25T05:24:44.049Z,91.13
2023-03-25T05:25:44.060Z,90.92
2023-03-25T05:26:44.023Z,90.61
2023-03-25T05:27:44.006Z,90.61
2023-03-25T05:28:44.013Z,90.20
2023-03-25T05:29:43.992Z,90.00
2023-03-25T05:30:44.005Z,90.09
2023-03-25T05:31:44.064Z,90.00
2023-03-25T05:32:44.023Z,90.00
2023-03-25T05:33:43.960Z,90.09
2023-03-25T05:34:43.935Z,90.51
2023-03-25T05:35:45.087Z,90.20
2023-03-25T05:36:43.985Z,89.69
2023-03-25T05:37:44.618Z,89.64
2023-03-25T05:38:43.921Z,88.62
2023-03-25T05:39:45.622Z,88.62
2023-03-25T05:40:43.875Z,88.62
2023-03-25T05:41:43.873Z,89.13
2023-03-25T05:42:43.853Z,89.34
2023-03-25T05:43:43.837Z,89.03
2023-03-25T05:44:43.829Z,88.82
2023-03-25T05:45:43.840Z,88.51
2023-03-25T05:46:43.812Z,88.10
2023-03-25T05:47:43.868Z,87.79
2023-03-25T05:48:43.821Z,88.20
2023-03-25T05:49:43.773Z,88.10
2023-03-25T05:50:43.767Z,87.79
2023-03-25T05:51:43.746Z,88.20
2023-03-25T05:52:43.749Z,88.00
2023-03-25T05:53:43.725Z,87.79
2023-03-25T05:54:43.742Z,87.49
2023-03-25T05:55:43.709Z,87.24
2023-03-25T05:56:43.735Z,87.55
2023-03-25T05:57:43.691Z,87.34
2023-03-25T05:58:43.683Z,87.65
2023-03-25T05:59:43.687Z,87.45
2023-03-25T06:00:43.668Z,87.13
2023-03-25T06:01:43.666Z,87.04
2023-03-25T06:02:43.700Z,87.24
2023-03-25T06:03:43.741Z,87.04
2023-03-25T06:04:43.634Z,86.52
2023-03-25T06:05:43.596Z,86.21
2023-03-25T06:06:43.590Z,86.32
2023-03-25T06:07:43.618Z,86.48
2023-03-25T06:08:43.580Z,87.10
2023-03-25T06:09:43.586Z,86.48
2023-03-25T06:10:43.559Z,85.86
2023-03-25T06:11:43.533Z,86.07
2023-03-25T06:12:43.551Z,86.38
2023-03-25T06:13:43.519Z,86.79
2023-03-25T06:14:43.519Z,85.76
2023-03-25T06:15:43.558Z,85.86
2023-03-25T06:16:43.491Z,85.76
2023-03-25T06:17:43.546Z,86.58
2023-03-25T06:18:43.465Z,86.07
2023-03-25T06:19:43.472Z,85.21
2023-03-25T06:20:43.451Z,85.31
2023-03-25T06:21:43.437Z,86.03
2023-03-25T06:22:43.502Z,85.62
2023-03-25T06:23:43.414Z,85.41
2023-03-25T06:24:43.407Z,85.72
2023-03-25T06:25:43.411Z,85.21
2023-03-25T06:26:43.383Z,85.11
2023-03-25T06:27:43.366Z,85.52
2023-03-25T06:28:43.365Z,85.52
2023-03-25T06:29:43.367Z,85.11
2023-03-25T06:30:43.342Z,85.58
2023-03-25T06:31:43.343Z,86.30
2023-03-25T06:32:43.401Z,85.89
2023-03-25T06:33:44.314Z,85.27
2023-03-25T06:34:43.294Z,85.78
2023-03-25T06:35:43.307Z,85.47
2023-03-25T06:36:43.272Z,84.96
2023-03-25T06:37:43.282Z,84.76
2023-03-25T06:38:43.255Z,84.76
2023-03-25T06:39:43.235Z,84.66
2023-03-25T06:40:43.244Z,84.86
2023-03-25T06:41:43.246Z,85.06
2023-03-25T06:42:43.225Z,84.66
2023-03-25T06:43:43.193Z,84.69
2023-03-25T06:44:43.189Z,84.86
2023-03-25T06:45:43.184Z,85.78
2023-03-25T06:46:43.201Z,85.47
2023-03-25T06:47:43.164Z,84.66
2023-03-25T06:48:43.145Z,85.06
2023-03-25T06:49:43.133Z,84.86
2023-03-25T06:50:43.815Z,85.89
2023-03-25T06:51:43.109Z,85.58
2023-03-25T06:52:43.099Z,85.38
2023-03-25T06:53:43.141Z,85.47
2023-03-25T06:54:43.104Z,85.89
2023-03-25T06:55:43.075Z,85.27
2023-03-25T06:56:43.112Z,85.27
2023-03-25T06:57:43.054Z,85.06
2023-03-25T06:58:43.046Z,85.03
2023-03-25T06:59:43.037Z,85.64
2023-03-25T07:00:43.021Z,85.95
2023-03-25T07:01:43.181Z,84.82
2023-03-25T07:02:43.029Z,84.41
2023-03-25T07:03:42.981Z,84.41
2023-03-25T07:04:43.008Z,84.31
2023-03-25T07:05:43.111Z,84.31
2023-03-25T07:06:42.953Z,84.72
2023-03-25T07:07:42.957Z,83.90
2023-03-25T07:08:42.936Z,83.49
2023-03-25T07:09:42.922Z,83.39
2023-03-25T07:10:42.923Z,84.10
2023-03-25T07:11:42.908Z,83.86
2023-03-25T07:12:42.892Z,84.27
2023-03-25T07:13:42.877Z,83.25
2023-03-25T07:14:42.868Z,81.98
2023-03-25T07:15:42.897Z,82.59
2023-03-25T07:16:42.916Z,81.98
2023-03-25T07:17:42.907Z,82.96
2023-03-25T07:18:42.844Z,82.24
2023-03-25T07:19:42.821Z,81.52
2023-03-25T07:20:46.024Z,81.32
2023-03-25T07:21:42.823Z,80.51
2023-03-25T07:22:42.783Z,80.51
2023-03-25T07:23:42.772Z,81.12
2023-03-25T07:24:42.761Z,80.91
2023-03-25T07:25:42.757Z,80.40
2023-03-25T07:26:42.734Z,80.71
2023-03-25T07:27:42.758Z,80.51
2023-03-25T07:28:42.714Z,81.01
2023-03-25T07:29:42.732Z,80.67
2023-03-25T07:30:42.696Z,80.26
2023-03-25T07:31:42.790Z,79.96
2023-03-25T07:32:42.723Z,80.05
2023-03-25T07:33:42.684Z,79.44
2023-03-25T07:34:42.668Z,79.24
2023-03-25T07:35:42.711Z,79.03
2023-03-25T07:36:42.641Z,79.27
2023-03-25T07:37:42.619Z,79.58
2023-03-25T07:38:42.607Z,79.79
2023-03-25T07:39:42.608Z,80.09
2023-03-25T07:40:42.588Z,80.46
2023-03-25T07:41:42.597Z,79.96
2023-03-25T07:42:42.557Z,79.85
2023-03-25T07:43:42.555Z,80.26
2023-03-25T07:44:42.538Z,80.57
2023-03-25T07:45:56.100Z,81.08
2023-03-25T07:46:43.537Z,81.24
2023-03-25T07:47:42.552Z,81.76
2023-03-25T07:48:42.494Z,81.56
2023-03-25T07:49:42.489Z,81.65
2023-03-25T07:50:42.504Z,80.12
2023-03-25T07:51:42.485Z,79.61
2023-03-25T07:52:42.454Z,80.12
2023-03-25T07:53:42.494Z,80.74
2023-03-25T07:54:42.458Z,80.33
2023-03-25T07:55:42.419Z,79.98
2023-03-25T07:56:42.479Z,80.69
2023-03-25T07:57:42.828Z,81.01
2023-03-25T07:58:42.396Z,81.10
2023-03-25T07:59:42.383Z,80.49
2023-03-25T08:00:42.377Z,80.35
2023-03-25T08:01:42.385Z,79.74
2023-03-25T08:02:42.423Z,79.23
2023-03-25T08:03:42.446Z,79.33
2023-03-25T08:04:42.325Z,79.33
2023-03-25T08:05:42.325Z,79.53
2023-03-25T08:06:42.311Z,79.64
2023-03-25T08:07:42.310Z,79.50
2023-03-25T08:08:42.279Z,79.29
2023-03-25T08:09:42.274Z,78.99
2023-03-25T08:10:42.274Z,78.58
2023-03-25T08:11:42.252Z,78.78
2023-03-25T08:12:42.249Z,78.07
2023-03-25T08:13:42.240Z,78.17
2023-03-25T08:14:42.212Z,77.45
2023-03-25T08:15:42.210Z,78.07
2023-03-25T08:16:42.289Z,78.38
2023-03-25T08:17:42.227Z,78.27
2023-03-25T08:18:42.190Z,77.56
2023-03-25T08:19:42.175Z,77.35
2023-03-25T08:20:42.152Z,76.94
2023-03-25T08:21:42.139Z,76.23
2023-03-25T08:22:42.129Z,76.23
2023-03-25T08:23:42.118Z,75.89
2023-03-25T08:24:42.135Z,75.58
2023-03-25T08:25:42.128Z,75.89
2023-03-25T08:26:42.082Z,76.19
2023-03-25T08:27:42.076Z,75.58
2023-03-25T08:28:42.060Z,75.07
2023-03-25T08:29:42.098Z,74.56
2023-03-25T08:30:42.042Z,74.66
2023-03-25T08:31:42.055Z,75.27
2023-03-25T08:32:42.052Z,74.42
2023-03-25T08:33:42.009Z,74.93
2023-03-25T08:34:42.011Z,74.42
2023-03-25T08:35:42.051Z,74.83
2023-03-25T08:36:41.983Z,75.10
2023-03-25T08:37:42.002Z,75.10
2023-03-25T08:38:41.950Z,75.51
2023-03-25T08:39:41.961Z,75.51
2023-03-25T08:40:41.929Z,75.82
2023-03-25T08:41:41.926Z,74.90
2023-03-25T08:42:41.918Z,73.57
2023-03-25T08:43:43.580Z,74.01
2023-03-25T08:44:41.899Z,74.52
2023-03-25T08:45:41.948Z,75.44
2023-03-25T08:46:41.920Z,75.34
2023-03-25T08:47:41.930Z,75.34
2023-03-25T08:48:41.856Z,78.03
2023-03-25T08:49:41.852Z,81.60
2023-03-25T08:50:41.822Z,85.59
2023-03-25T08:51:41.813Z,84.41
2023-03-25T08:52:41.816Z,84.24
2023-03-25T08:53:41.795Z,84.14
2023-03-25T08:54:41.785Z,85.57
2023-03-25T08:55:41.774Z,84.89
2023-03-25T08:56:41.797Z,85.10
2023-03-25T08:57:41.753Z,84.58
2023-03-25T08:58:41.739Z,84.83
2023-03-25T08:59:41.727Z,84.42
2023-03-25T09:00:41.739Z,84.93
2023-03-25T09:01:41.709Z,85.14
2023-03-25T09:02:41.715Z,84.83
2023-03-25T09:03:41.684Z,83.64
2023-03-25T09:04:41.670Z,84.15
2023-03-25T09:05:41.719Z,86.20
2023-03-25T09:06:47.959Z,86.30
2023-03-25T09:07:42.647Z,85.42
2023-03-25T09:08:41.649Z,86.44
2023-03-25T09:09:41.651Z,87.67
2023-03-25T09:10:41.607Z,89.11
2023-03-25T09:11:41.605Z,90.37
2023-03-25T09:12:41.587Z,90.28
2023-03-25T09:13:41.586Z,90.89
2023-03-25T09:14:41.594Z,91.40
2023-03-25T09:15:41.571Z,91.61
2023-03-25T09:16:41.540Z,91.71
2023-03-25T09:17:41.553Z,91.09
2023-03-25T09:18:41.537Z,91.20
2023-03-25T09:19:41.538Z,92.02
2023-03-25T09:20:41.506Z,90.89
2023-03-25T09:21:41.505Z,90.89
2023-03-25T09:22:41.513Z,90.99
2023-03-25T09:23:41.478Z,91.09
2023-03-25T09:24:41.458Z,89.72
2023-03-25T09:25:41.448Z,90.23
2023-03-25T09:26:41.440Z,90.84
2023-03-25T09:27:41.450Z,91.36
2023-03-25T09:28:41.420Z,90.09
2023-03-25T09:29:41.400Z,90.39
2023-03-25T09:30:41.389Z,90.09
2023-03-25T09:31:41.412Z,90.91
2023-03-25T09:32:41.403Z,90.09
2023-03-25T09:33:41.380Z,90.45
2023-03-25T09:34:41.346Z,90.45
2023-03-25T09:35:41.495Z,89.94
2023-03-25T09:36:41.328Z,90.45
2023-03-25T09:37:41.327Z,90.25
2023-03-25T09:38:41.322Z,89.74
2023-03-25T09:39:41.311Z,88.82
2023-03-25T09:40:41.294Z,88.31
2023-03-25T09:41:41.343Z,88.20
2023-03-25T09:42:41.260Z,88.78
2023-03-25T09:43:41.252Z,88.57
2023-03-25T09:44:41.236Z,88.26
2023-03-25T09:45:41.262Z,87.76
2023-03-25T09:46:41.271Z,87.71
2023-03-25T09:47:41.215Z,87.10
2023-03-25T09:48:41.213Z,86.59
2023-03-25T09:49:41.225Z,86.65
2023-03-25T09:50:41.175Z,87.16
2023-03-25T09:51:41.175Z,86.65
2023-03-25T09:52:41.158Z,86.24
2023-03-25T09:53:41.152Z,86.10
2023-03-25T09:54:41.130Z,86.00
2023-03-25T09:55:41.140Z,85.32
2023-03-25T09:56:42.001Z,84.81
2023-03-25T09:57:41.103Z,84.50
2023-03-25T09:58:41.105Z,85.42
2023-03-25T09:59:41.095Z,86.44
2023-03-25T10:00:41.137Z,86.41
2023-03-25T10:01:41.098Z,86.91
2023-03-25T10:02:41.931Z,85.79
2023-03-25T10:03:41.033Z,86.10
2023-03-25T10:04:41.040Z,85.59
2023-03-25T10:05:41.037Z,86.00
2023-03-25T10:06:41.017Z,86.30
2023-03-25T10:07:41.015Z,84.57
2023-03-25T10:08:40.984Z,83.65
2023-03-25T10:09:40.975Z,83.75
2023-03-25T10:10:40.974Z,82.83
2023-03-25T10:11:40.962Z,82.12
2023-03-25T10:12:40.936Z,82.79
2023-03-25T10:13:40.947Z,82.96
2023-03-25T10:14:40.919Z,82.75
2023-03-25T10:15:40.910Z,82.82
2023-03-25T10:16:40.923Z,83.02
2023-03-25T10:17:40.924Z,82.88
2023-03-25T10:18:40.868Z,81.56
2023-03-25T10:19:40.861Z,81.09
2023-03-25T10:20:40.852Z,81.18
2023-03-25T10:21:40.848Z,81.96
2023-03-25T10:22:40.830Z,80.74
2023-03-25T10:23:40.841Z,80.23
2023-03-25T10:24:40.806Z,81.25
2023-03-25T10:25:40.801Z,81.62
2023-03-25T10:26:40.787Z,79.17
2023-03-25T10:27:40.789Z,77.40
2023-03-25T10:28:40.764Z,76.49
2023-03-25T10:29:40.772Z,76.59
2023-03-25T10:30:40.738Z,75.98
2023-03-25T10:31:40.751Z,75.57
2023-03-25T10:32:40.755Z,75.13
2023-03-25T10:33:40.747Z,76.56
2023-03-25T10:34:40.715Z,74.99
2023-03-25T10:35:40.716Z,76.72
2023-03-25T10:36:40.676Z,76.31
2023-03-25T10:37:40.718Z,74.18
2023-03-25T10:38:40.659Z,74.11
2023-03-25T10:39:40.652Z,73.60
2023-03-25T10:40:40.633Z,73.80
2023-03-25T10:41:40.666Z,73.60
2023-03-25T10:42:40.614Z,72.89
2023-03-25T10:43:40.706Z,73.19
2023-03-25T10:44:40.593Z,71.87
2023-03-25T10:45:40.617Z,72.48
2023-03-25T10:46:40.574Z,72.78
2023-03-25T10:47:40.575Z,72.28
2023-03-25T10:48:40.565Z,71.97
2023-03-25T10:49:40.548Z,73.10
2023-03-25T10:50:40.547Z,72.89
2023-03-25T10:51:40.544Z,72.58
2023-03-25T10:52:40.506Z,71.77
2023-03-25T10:53:40.560Z,71.97
2023-03-25T10:54:40.491Z,70.75
2023-03-25T10:55:40.475Z,71.47
2023-03-25T10:56:40.496Z,70.55
2023-03-25T10:57:40.454Z,70.24
2023-03-25T10:58:40.444Z,69.93
2023-03-25T10:59:40.438Z,70.34
2023-03-25T11:00:40.433Z,70.68
2023-03-25T11:01:40.455Z,70.68
2023-03-25T11:02:40.473Z,71.67
2023-03-25T11:03:40.408Z,70.86
2023-03-25T11:04:40.370Z,71.36
2023-03-25T11:05:40.369Z,71.16
2023-03-25T11:06:40.369Z,70.14
2023-03-25T11:07:40.345Z,70.48
2023-03-25T11:08:40.327Z,69.76
2023-03-25T11:09:40.326Z,69.76
2023-03-25T11:10:40.332Z,71.09
2023-03-25T11:11:40.309Z,71.80
2023-03-25T11:12:43.345Z,73.13
2023-03-25T11:13:40.279Z,72.01
2023-03-25T11:14:40.295Z,72.01
2023-03-25T11:15:40.300Z,72.21
2023-03-25T11:16:40.284Z,72.48
2023-03-25T11:17:40.252Z,71.47
2023-03-25T11:18:40.990Z,70.75
2023-03-25T11:19:40.234Z,69.53
2023-03-25T11:20:40.197Z,69.53
2023-03-25T11:21:40.190Z,69.19
2023-03-25T11:22:40.173Z,69.09
2023-03-25T11:23:40.216Z,69.97
2023-03-25T11:24:40.178Z,69.26
2023-03-25T11:25:40.184Z,68.82
2023-03-25T11:26:40.148Z,68.92
2023-03-25T11:27:40.124Z,67.67
2023-03-25T11:28:40.122Z,67.88
2023-03-25T11:29:40.104Z,67.80
2023-03-25T11:30:40.097Z,66.99
2023-03-25T11:31:40.109Z,66.89
2023-03-25T11:32:40.124Z,67.40
2023-03-25T11:33:40.076Z,67.19
2023-03-25T11:34:40.183Z,67.40
2023-03-25T11:35:40.115Z,67.19
2023-03-25T11:36:40.047Z,65.97
2023-03-25T11:37:40.022Z,65.80
2023-03-25T11:38:40.014Z,66.61
2023-03-25T11:39:40.003Z,66.41
2023-03-25T11:40:40.008Z,66.41
2023-03-25T11:41:39.992Z,66.61
2023-03-25T11:42:39.995Z,66.72
2023-03-25T11:43:39.950Z,66.92
2023-03-25T11:44:39.968Z,67.63
2023-03-25T11:45:39.927Z,67.83
2023-03-25T11:46:39.940Z,67.40
2023-03-25T11:47:39.904Z,66.55
2023-03-25T11:48:39.916Z,66.55
2023-03-25T11:49:39.898Z,66.42
2023-03-25T11:50:39.878Z,65.81
2023-03-25T11:51:39.863Z,65.71
2023-03-25T11:52:39.855Z,65.10
2023-03-25T11:53:39.844Z,64.97
2023-03-25T11:54:39.887Z,63.85
2023-03-25T11:55:39.816Z,64.23
2023-03-25T11:56:39.852Z,62.91
2023-03-25T11:57:39.802Z,63.24
2023-03-25T11:58:39.787Z,63.34
2023-03-25T11:59:39.771Z,63.45
2023-03-25T12:00:41.554Z,61.62
2023-03-25T12:01:39.751Z,61.82
2023-03-25T12:02:39.796Z,61.75
2023-03-25T12:03:39.899Z,61.75
2023-03-25T12:04:39.726Z,61.41
2023-03-25T12:05:39.727Z,60.81
2023-03-25T12:06:39.726Z,61.08
2023-03-25T12:07:39.688Z,61.39
2023-03-25T12:08:39.700Z,61.21
2023-03-25T12:09:39.705Z,62.33
2023-03-25T12:10:39.660Z,61.29
2023-03-25T12:11:41.972Z,61.93
2023-03-25T12:12:39.647Z,62.23
2023-03-25T12:13:39.616Z,62.33
2023-03-25T12:14:39.629Z,62.33
2023-03-25T12:15:43.066Z,62.20
2023-03-25T12:16:39.657Z,62.10
2023-03-25T12:17:39.597Z,61.97
2023-03-25T12:18:39.596Z,61.43
2023-03-25T12:19:39.573Z,60.49
2023-03-25T12:20:39.556Z,60.42
2023-03-25T12:21:39.536Z,60.85
2023-03-25T12:22:39.534Z,60.28
2023-03-25T12:23:39.515Z,60.69
2023-03-25T12:24:39.539Z,59.75
2023-03-25T12:25:39.493Z,59.06
2023-03-25T12:26:39.485Z,58.28
2023-03-25T12:27:39.470Z,58.73
2023-03-25T12:28:39.467Z,57.29
2023-03-25T12:29:39.480Z,57.16
2023-03-25T12:30:39.448Z,56.45
2023-03-25T12:31:39.480Z,57.42
2023-03-25T12:32:39.453Z,56.96
2023-03-25T12:33:39.427Z,56.45
2023-03-25T12:34:39.749Z,56.78
2023-03-25T12:35:39.389Z,57.18
2023-03-25T12:36:39.385Z,58.36
2023-03-25T12:37:39.377Z,59.29
2023-03-25T12:38:39.391Z,58.99
2023-03-25T12:39:43.254Z,58.61
2023-03-25T12:40:39.345Z,58.94
2023-03-25T12:41:39.317Z,59.52
2023-03-25T12:42:39.324Z,62.95
2023-03-25T12:43:39.312Z,69.40
2023-03-25T12:44:39.302Z,72.52
2023-03-25T12:45:39.315Z,76.04
2023-03-25T12:46:39.278Z,78.52
2023-03-25T12:47:39.291Z,78.86
2023-03-25T12:48:39.264Z,79.30
2023-03-25T12:49:39.247Z,81.40
2023-03-25T12:50:39.230Z,83.18
2023-03-25T12:51:39.217Z,81.58
2023-03-25T12:52:39.209Z,78.93